sensor_id;sensor_type;location;lat;lon;timestamp;temperature;humidity
36186;DHT22;22228;53.222;7.446;2023-08-31T00:01:38;10.70;99.90
36186;DHT22;22228;53.222;7.446;2023-08-31T00:03:58;10.70;99.90
36186;DHT22;22228;53.222;7.446;2023-08-31T00:06:19;10.70;99.90
36186;DHT22;22228;53.222;7.446;2023-08-31T00:08:40;10.70;99.90
36186;DHT22;22228;53.222;7.446;2023-08-31T00:11:01;10.70;99.90
36186;DHT22;22228;53.222;7.446;2023-08-31T00:13:23;10.70;99.90
36186;DHT22;22228;53.222;7.446;2023-08-31T03:01:45;9.50;99.90
36186;DHT22;22228;53.222;7.446;2023-08-31T03:04:07;9.50;99.90
36186;DHT22;22228;53.222;7.446;2023-08-31T03:06:27;9.40;99.90
36186;DHT22;22228;53.222;7.446;2023-08-31T03:08:48;9.40;99.90
36186;DHT22;22228;53.222;7.446;2023-08-31T03:11:12;9.40;99.90
36186;DHT22;22228;53.222;7.446;2023-08-31T03:13:35;9.50;99.90
36186;DHT22;22228;53.222;7.446;2023-08-31T03:15:55;9.60;99.90
36186;DHT22;22228;53.222;7.446;2023-08-31T03:18:18;9.60;99.90
36186;DHT22;22228;53.222;7.446;2023-08-31T03:20:40;9.60;99.90
36186;DHT22;22228;53.222;7.446;2023-08-31T03:23:01;9.60;99.90
36186;DHT22;22228;53.222;7.446;2023-08-31T03:25:21;9.60;99.90
36186;DHT22;22228;53.222;7.446;2023-08-31T03:27:42;9.60;99.90
36186;DHT22;22228;53.222;7.446;2023-08-31T03:30:04;9.60;99.90
36186;DHT22;22228;53.222;7.446;2023-08-31T03:32:25;9.60;99.90
36186;DHT22;22228;53.222;7.446;2023-08-31T03:34:47;9.50;99.90
36186;DHT22;22228;53.222;7.446;2023-08-31T03:37:07;9.50;99.90
36186;DHT22;22228;53.222;7.446;2023-08-31T03:39:28;9.50;99.90
36186;DHT22;22228;53.222;7.446;2023-08-31T03:41:49;9.50;99.90
36186;DHT22;22228;53.222;7.446;2023-08-31T03:44:10;9.40;99.90
36186;DHT22;22228;53.222;7.446;2023-08-31T03:46:30;9.40;99.90
36186;DHT22;22228;53.222;7.446;2023-08-31T03:48:52;9.40;99.90
36186;DHT22;22228;53.222;7.446;2023-08-31T03:51:14;9.40;99.90
36186;DHT22;22228;53.222;7.446;2023-08-31T03:53:36;9.40;99.90
36186;DHT22;22228;53.222;7.446;2023-08-31T03:55:57;9.30;99.90
36186;DHT22;22228;53.222;7.446;2023-08-31T03:58:18;9.20;99.90
36186;DHT22;22228;53.222;7.446;2023-08-31T04:00:40;9.20;99.90
36186;DHT22;22228;53.222;7.446;2023-08-31T04:03:01;9.10;99.90
36186;DHT22;22228;53.222;7.446;2023-08-31T04:05:22;9.10;99.90
36186;DHT22;22228;53.222;7.446;2023-08-31T04:07:44;9.00;99.90
36186;DHT22;22228;53.222;7.446;2023-08-31T04:10:06;9.00;99.90
36186;DHT22;22228;53.222;7.446;2023-08-31T04:12:26;9.00;99.90
36186;DHT22;22228;53.222;7.446;2023-08-31T04:14:48;9.00;99.90
36186;DHT22;22228;53.222;7.446;2023-08-31T04:17:08;9.00;99.90
36186;DHT22;22228;53.222;7.446;2023-08-31T04:19:29;9.10;99.90
36186;DHT22;22228;53.222;7.446;2023-08-31T04:21:49;9.10;99.90
36186;DHT22;22228;53.222;7.446;2023-08-31T04:24:11;9.20;99.90
36186;DHT22;22228;53.222;7.446;2023-08-31T04:26:32;9.30;99.90
36186;DHT22;22228;53.222;7.446;2023-08-31T04:28:53;9.40;99.90
36186;DHT22;22228;53.222;7.446;2023-08-31T04:31:13;9.50;99.90
36186;DHT22;22228;53.222;7.446;2023-08-31T04:33:34;9.50;99.90
36186;DHT22;22228;53.222;7.446;2023-08-31T04:35:54;9.50;99.90
36186;DHT22;22228;53.222;7.446;2023-08-31T04:38:15;9.40;99.90
36186;DHT22;22228;53.222;7.446;2023-08-31T04:40:37;9.30;99.90
36186;DHT22;22228;53.222;7.446;2023-08-31T04:42:58;9.30;99.90
36186;DHT22;22228;53.222;7.446;2023-08-31T04:45:19;9.20;99.90
36186;DHT22;22228;53.222;7.446;2023-08-31T04:47:39;9.10;99.90
36186;DHT22;22228;53.222;7.446;2023-08-31T04:50:00;9.10;99.90
36186;DHT22;22228;53.222;7.446;2023-08-31T04:52:20;9.00;99.90
36186;DHT22;22228;53.222;7.446;2023-08-31T04:54:41;9.00;99.90
36186;DHT22;22228;53.222;7.446;2023-08-31T04:57:03;9.00;99.90
36186;DHT22;22228;53.222;7.446;2023-08-31T04:59:26;9.10;99.90
36186;DHT22;22228;53.222;7.446;2023-08-31T05:01:47;9.10;99.90
36186;DHT22;22228;53.222;7.446;2023-08-31T05:04:07;9.20;99.90
36186;DHT22;22228;53.222;7.446;2023-08-31T05:06:28;9.20;99.90
36186;DHT22;22228;53.222;7.446;2023-08-31T05:08:49;9.20;99.90
36186;DHT22;22228;53.222;7.446;2023-08-31T05:11:09;9.20;99.90
36186;DHT22;22228;53.222;7.446;2023-08-31T05:13:31;9.30;99.90
36186;DHT22;22228;53.222;7.446;2023-08-31T05:15:52;9.50;99.90
36186;DHT22;22228;53.222;7.446;2023-08-31T05:18:12;9.50;99.90
36186;DHT22;22228;53.222;7.446;2023-08-31T05:20:33;9.70;99.90
36186;DHT22;22228;53.222;7.446;2023-08-31T05:22:53;9.90;99.90
36186;DHT22;22228;53.222;7.446;2023-08-31T05:25:14;9.90;99.90
36186;DHT22;22228;53.222;7.446;2023-08-31T05:27:35;10.00;99.90
36186;DHT22;22228;53.222;7.446;2023-08-31T05:29:56;10.00;99.90
36186;DHT22;22228;53.222;7.446;2023-08-31T05:32:17;10.00;99.90
36186;DHT22;22228;53.222;7.446;2023-08-31T05:34:37;10.00;99.90
36186;DHT22;22228;53.222;7.446;2023-08-31T05:36:58;10.10;99.90
36186;DHT22;22228;53.222;7.446;2023-08-31T05:39:19;10.10;99.90
36186;DHT22;22228;53.222;7.446;2023-08-31T05:41:40;10.20;99.90
36186;DHT22;22228;53.222;7.446;2023-08-31T05:44:01;10.20;99.90
36186;DHT22;22228;53.222;7.446;2023-08-31T05:46:23;10.30;99.90
36186;DHT22;22228;53.222;7.446;2023-08-31T05:48:43;10.40;99.90
36186;DHT22;22228;53.222;7.446;2023-08-31T05:51:04;10.50;99.90
36186;DHT22;22228;53.222;7.446;2023-08-31T05:53:24;10.60;99.90
36186;DHT22;22228;53.222;7.446;2023-08-31T05:55:45;10.80;99.90
36186;DHT22;22228;53.222;7.446;2023-08-31T05:58:06;10.80;99.90
36186;DHT22;22228;53.222;7.446;2023-08-31T06:00:26;10.90;99.90
36186;DHT22;22228;53.222;7.446;2023-08-31T06:02:48;11.00;99.90
36186;DHT22;22228;53.222;7.446;2023-08-31T06:05:10;11.10;99.90
36186;DHT22;22228;53.222;7.446;2023-08-31T06:07:31;11.20;99.90
36186;DHT22;22228;53.222;7.446;2023-08-31T06:09:51;11.30;99.90
36186;DHT22;22228;53.222;7.446;2023-08-31T06:12:12;11.40;99.90
36186;DHT22;22228;53.222;7.446;2023-08-31T06:14:32;11.50;99.90
36186;DHT22;22228;53.222;7.446;2023-08-31T06:16:53;11.60;99.90
36186;DHT22;22228;53.222;7.446;2023-08-31T06:19:15;11.60;99.90
36186;DHT22;22228;53.222;7.446;2023-08-31T06:21:35;11.70;99.90
36186;DHT22;22228;53.222;7.446;2023-08-31T06:23:56;11.70;99.90
36186;DHT22;22228;53.222;7.446;2023-08-31T06:26:16;11.70;99.90
36186;DHT22;22228;53.222;7.446;2023-08-31T06:28:37;11.70;99.90
36186;DHT22;22228;53.222;7.446;2023-08-31T06:30:58;11.80;99.90
36186;DHT22;22228;53.222;7.446;2023-08-31T06:33:18;11.80;99.90
36186;DHT22;22228;53.222;7.446;2023-08-31T06:35:40;11.80;99.90
36186;DHT22;22228;53.222;7.446;2023-08-31T06:38:00;11.90;99.90
36186;DHT22;22228;53.222;7.446;2023-08-31T06:40:21;12.00;99.90
36186;DHT22;22228;53.222;7.446;2023-08-31T06:42:41;12.00;99.90
36186;DHT22;22228;53.222;7.446;2023-08-31T06:45:02;12.00;99.90
36186;DHT22;22228;53.222;7.446;2023-08-31T06:47:23;12.00;99.90
36186;DHT22;22228;53.222;7.446;2023-08-31T06:49:43;12.10;99.90
36186;DHT22;22228;53.222;7.446;2023-08-31T06:52:05;12.20;99.90
36186;DHT22;22228;53.222;7.446;2023-08-31T06:54:27;12.30;99.90
36186;DHT22;22228;53.222;7.446;2023-08-31T06:56:47;12.20;99.90
36186;DHT22;22228;53.222;7.446;2023-08-31T06:59:08;12.30;99.90
36186;DHT22;22228;53.222;7.446;2023-08-31T07:01:29;12.40;99.90
36186;DHT22;22228;53.222;7.446;2023-08-31T07:03:51;12.40;99.90
36186;DHT22;22228;53.222;7.446;2023-08-31T07:06:12;12.40;99.90
36186;DHT22;22228;53.222;7.446;2023-08-31T07:08:34;12.60;99.90
36186;DHT22;22228;53.222;7.446;2023-08-31T07:10:56;12.60;99.90
36186;DHT22;22228;53.222;7.446;2023-08-31T07:13:16;12.70;99.90
36186;DHT22;22228;53.222;7.446;2023-08-31T07:15:37;12.70;99.90
36186;DHT22;22228;53.222;7.446;2023-08-31T07:17:57;12.70;99.90
36186;DHT22;22228;53.222;7.446;2023-08-31T07:20:18;12.80;99.90
36186;DHT22;22228;53.222;7.446;2023-08-31T07:22:38;12.90;99.90
36186;DHT22;22228;53.222;7.446;2023-08-31T07:25:01;13.00;99.90
36186;DHT22;22228;53.222;7.446;2023-08-31T07:27:22;13.00;99.90
36186;DHT22;22228;53.222;7.446;2023-08-31T07:29:43;13.10;99.90
36186;DHT22;22228;53.222;7.446;2023-08-31T07:32:03;13.10;99.90
36186;DHT22;22228;53.222;7.446;2023-08-31T07:34:24;13.20;99.90
36186;DHT22;22228;53.222;7.446;2023-08-31T07:36:45;13.30;99.90
36186;DHT22;22228;53.222;7.446;2023-08-31T07:39:06;13.40;99.90
36186;DHT22;22228;53.222;7.446;2023-08-31T07:41:28;13.50;99.90
36186;DHT22;22228;53.222;7.446;2023-08-31T07:43:48;13.60;99.90
36186;DHT22;22228;53.222;7.446;2023-08-31T07:46:09;13.60;99.90
36186;DHT22;22228;53.222;7.446;2023-08-31T07:48:29;13.80;99.90
36186;DHT22;22228;53.222;7.446;2023-08-31T07:50:50;13.80;99.90
36186;DHT22;22228;53.222;7.446;2023-08-31T07:53:11;13.80;99.90
36186;DHT22;22228;53.222;7.446;2023-08-31T07:55:31;13.90;99.90
36186;DHT22;22228;53.222;7.446;2023-08-31T07:57:53;14.00;99.90
36186;DHT22;22228;53.222;7.446;2023-08-31T08:00:14;14.10;99.90
36186;DHT22;22228;53.222;7.446;2023-08-31T08:02:35;14.10;99.90
36186;DHT22;22228;53.222;7.446;2023-08-31T08:04:55;14.20;99.90
36186;DHT22;22228;53.222;7.446;2023-08-31T08:07:15;14.30;99.90
36186;DHT22;22228;53.222;7.446;2023-08-31T08:09:36;14.40;99.90
36186;DHT22;22228;53.222;7.446;2023-08-31T08:11:56;14.50;99.90
36186;DHT22;22228;53.222;7.446;2023-08-31T08:14:18;14.60;99.90
36186;DHT22;22228;53.222;7.446;2023-08-31T08:16:39;14.70;99.90
36186;DHT22;22228;53.222;7.446;2023-08-31T08:18:59;14.90;99.90
36186;DHT22;22228;53.222;7.446;2023-08-31T08:21:19;15.00;99.90
36186;DHT22;22228;53.222;7.446;2023-08-31T08:23:40;14.90;99.90
36186;DHT22;22228;53.222;7.446;2023-08-31T08:26:00;14.90;99.90
36186;DHT22;22228;53.222;7.446;2023-08-31T08:28:21;15.00;99.90
36186;DHT22;22228;53.222;7.446;2023-08-31T08:30:43;15.10;99.90
36186;DHT22;22228;53.222;7.446;2023-08-31T08:33:04;15.20;99.90
36186;DHT22;22228;53.222;7.446;2023-08-31T08:35:25;15.30;99.90
36186;DHT22;22228;53.222;7.446;2023-08-31T08:37:45;15.40;99.90
36186;DHT22;22228;53.222;7.446;2023-08-31T08:40:07;15.60;99.90
36186;DHT22;22228;53.222;7.446;2023-08-31T08:42:30;15.60;99.90
36186;DHT22;22228;53.222;7.446;2023-08-31T08:44:51;15.80;99.90
36186;DHT22;22228;53.222;7.446;2023-08-31T08:47:13;15.90;99.90
36186;DHT22;22228;53.222;7.446;2023-08-31T08:49:34;16.00;99.90
36186;DHT22;22228;53.222;7.446;2023-08-31T08:51:55;16.10;99.90
36186;DHT22;22228;53.222;7.446;2023-08-31T08:54:16;16.20;99.90
36186;DHT22;22228;53.222;7.446;2023-08-31T08:56:37;16.40;99.90
36186;DHT22;22228;53.222;7.446;2023-08-31T08:58:58;16.40;99.90
36186;DHT22;22228;53.222;7.446;2023-08-31T09:01:18;16.50;99.90
36186;DHT22;22228;53.222;7.446;2023-08-31T09:03:43;16.80;99.90
36186;DHT22;22228;53.222;7.446;2023-08-31T09:06:03;16.90;99.90
36186;DHT22;22228;53.222;7.446;2023-08-31T09:08:28;16.90;99.90
36186;DHT22;22228;53.222;7.446;2023-08-31T09:10:49;16.90;92.60
36186;DHT22;22228;53.222;7.446;2023-08-31T09:13:09;16.90;55.70
36186;DHT22;22228;53.222;7.446;2023-08-31T09:15:36;16.90;30.50
36186;DHT22;22228;53.222;7.446;2023-08-31T09:17:57;17.10;70.80
36186;DHT22;22228;53.222;7.446;2023-08-31T09:20:19;17.20;1.00
36186;DHT22;22228;53.222;7.446;2023-08-31T09:22:42;17.20;17.40
36186;DHT22;22228;53.222;7.446;2023-08-31T09:25:04;17.20;1.00
36186;DHT22;22228;53.222;7.446;2023-08-31T09:27:24;17.30;1.00
36186;DHT22;22228;53.222;7.446;2023-08-31T09:29:45;17.50;1.00
36186;DHT22;22228;53.222;7.446;2023-08-31T09:32:06;17.80;1.00
36186;DHT22;22228;53.222;7.446;2023-08-31T09:34:33;18.20;1.00
36186;DHT22;22228;53.222;7.446;2023-08-31T09:36:55;18.50;1.00
36186;DHT22;22228;53.222;7.446;2023-08-31T09:39:15;18.60;1.00
36186;DHT22;22228;53.222;7.446;2023-08-31T09:41:52;18.40;99.90
36186;DHT22;22228;53.222;7.446;2023-08-31T09:44:17;17.70;99.90
36186;DHT22;22228;53.222;7.446;2023-08-31T09:46:37;17.00;1.00
36186;DHT22;22228;53.222;7.446;2023-08-31T09:48:58;16.60;1.00
36186;DHT22;22228;53.222;7.446;2023-08-31T09:51:20;16.30;99.90
36186;DHT22;22228;53.222;7.446;2023-08-31T09:53:46;16.30;99.90
36186;DHT22;22228;53.222;7.446;2023-08-31T09:56:13;16.50;1.00
36186;DHT22;22228;53.222;7.446;2023-08-31T09:58:34;16.70;1.00
36186;DHT22;22228;53.222;7.446;2023-08-31T10:00:55;16.90;1.00
36186;DHT22;22228;53.222;7.446;2023-08-31T10:03:16;17.20;99.90
36186;DHT22;22228;53.222;7.446;2023-08-31T10:05:36;17.30;3.70
36186;DHT22;22228;53.222;7.446;2023-08-31T10:07:57;17.10;99.90
36186;DHT22;22228;53.222;7.446;2023-08-31T10:10:20;16.40;1.00
36186;DHT22;22228;53.222;7.446;2023-08-31T10:12:42;16.10;1.00
36186;DHT22;22228;53.222;7.446;2023-08-31T10:15:05;15.80;1.00
36186;DHT22;22228;53.222;7.446;2023-08-31T10:17:26;15.70;1.00
36186;DHT22;22228;53.222;7.446;2023-08-31T10:19:47;15.50;1.00
36186;DHT22;22228;53.222;7.446;2023-08-31T10:22:08;15.40;99.90
36186;DHT22;22228;53.222;7.446;2023-08-31T10:24:59;15.20;99.90
36186;DHT22;22228;53.222;7.446;2023-08-31T10:27:21;15.20;99.90
36186;DHT22;22228;53.222;7.446;2023-08-31T10:29:41;15.40;99.90
36186;DHT22;22228;53.222;7.446;2023-08-31T10:32:02;15.70;99.90
36186;DHT22;22228;53.222;7.446;2023-08-31T10:34:35;16.20;99.90
36186;DHT22;22228;53.222;7.446;2023-08-31T10:36:56;16.50;1.00
36186;DHT22;22228;53.222;7.446;2023-08-31T10:39:18;16.90;1.00
36186;DHT22;22228;53.222;7.446;2023-08-31T10:41:39;17.10;1.00
36186;DHT22;22228;53.222;7.446;2023-08-31T10:44:01;16.30;99.90
36186;DHT22;22228;53.222;7.446;2023-08-31T10:46:26;15.30;1.00
36186;DHT22;22228;53.222;7.446;2023-08-31T10:48:51;14.70;72.10
36186;DHT22;22228;53.222;7.446;2023-08-31T10:51:16;14.30;99.90
36186;DHT22;22228;53.222;7.446;2023-08-31T10:53:37;14.20;99.90
36186;DHT22;22228;53.222;7.446;2023-08-31T10:55:58;14.20;99.90
36186;DHT22;22228;53.222;7.446;2023-08-31T10:58:18;14.20;99.90
36186;DHT22;22228;53.222;7.446;2023-08-31T11:00:52;14.20;99.90
36186;DHT22;22228;53.222;7.446;2023-08-31T11:03:16;14.20;99.90
36186;DHT22;22228;53.222;7.446;2023-08-31T11:05:50;14.50;99.90
36186;DHT22;22228;53.222;7.446;2023-08-31T11:08:10;15.20;99.90
36186;DHT22;22228;53.222;7.446;2023-08-31T11:10:31;16.00;99.90
36186;DHT22;22228;53.222;7.446;2023-08-31T11:12:53;16.40;90.90
36186;DHT22;22228;53.222;7.446;2023-08-31T11:15:15;16.20;1.00
36186;DHT22;22228;53.222;7.446;2023-08-31T11:17:37;15.90;1.00
36186;DHT22;22228;53.222;7.446;2023-08-31T11:19:59;15.80;2.00
36186;DHT22;22228;53.222;7.446;2023-08-31T11:22:20;15.70;65.80
36186;DHT22;22228;53.222;7.446;2023-08-31T11:24:41;15.70;99.90
36186;DHT22;22228;53.222;7.446;2023-08-31T11:27:01;15.70;1.00
36186;DHT22;22228;53.222;7.446;2023-08-31T11:29:23;15.90;42.70
36186;DHT22;22228;53.222;7.446;2023-08-31T11:31:43;16.20;99.90
36186;DHT22;22228;53.222;7.446;2023-08-31T11:34:06;16.50;53.30
36186;DHT22;22228;53.222;7.446;2023-08-31T11:36:26;16.80;1.00
36186;DHT22;22228;53.222;7.446;2023-08-31T11:38:48;17.10;99.90
36186;DHT22;22228;53.222;7.446;2023-08-31T11:41:09;17.40;99.90
36186;DHT22;22228;53.222;7.446;2023-08-31T11:43:29;17.80;99.90
36186;DHT22;22228;53.222;7.446;2023-08-31T11:45:50;17.80;1.00
36186;DHT22;22228;53.222;7.446;2023-08-31T11:48:12;17.60;1.00
36186;DHT22;22228;53.222;7.446;2023-08-31T11:50:34;17.40;99.90
36186;DHT22;22228;53.222;7.446;2023-08-31T11:52:55;17.00;1.00
36186;DHT22;22228;53.222;7.446;2023-08-31T11:55:16;16.50;99.90
36186;DHT22;22228;53.222;7.446;2023-08-31T11:57:37;15.90;1.00
36186;DHT22;22228;53.222;7.446;2023-08-31T11:59:57;15.40;99.90
36186;DHT22;22228;53.222;7.446;2023-08-31T12:02:19;15.00;99.90
36186;DHT22;22228;53.222;7.446;2023-08-31T12:04:43;14.80;99.90
36186;DHT22;22228;53.222;7.446;2023-08-31T12:07:05;14.70;99.90
36186;DHT22;22228;53.222;7.446;2023-08-31T12:09:27;14.60;99.90
36186;DHT22;22228;53.222;7.446;2023-08-31T12:11:51;14.50;99.90
36186;DHT22;22228;53.222;7.446;2023-08-31T12:14:19;14.60;99.90
36186;DHT22;22228;53.222;7.446;2023-08-31T12:16:39;14.70;99.90
36186;DHT22;22228;53.222;7.446;2023-08-31T12:19:02;14.80;99.90
36186;DHT22;22228;53.222;7.446;2023-08-31T12:21:24;15.00;99.90
36186;DHT22;22228;53.222;7.446;2023-08-31T12:23:45;15.20;99.90
36186;DHT22;22228;53.222;7.446;2023-08-31T12:26:06;15.50;99.90
36186;DHT22;22228;53.222;7.446;2023-08-31T12:28:27;15.70;99.90
36186;DHT22;22228;53.222;7.446;2023-08-31T12:30:49;15.90;99.90
36186;DHT22;22228;53.222;7.446;2023-08-31T12:33:08;16.20;96.80
36186;DHT22;22228;53.222;7.446;2023-08-31T12:35:29;16.40;1.00
36186;DHT22;22228;53.222;7.446;2023-08-31T12:37:49;16.50;99.90
36186;DHT22;22228;53.222;7.446;2023-08-31T12:40:12;16.70;99.90
36186;DHT22;22228;53.222;7.446;2023-08-31T12:42:33;17.00;1.00
36186;DHT22;22228;53.222;7.446;2023-08-31T12:44:53;17.10;1.00
36186;DHT22;22228;53.222;7.446;2023-08-31T12:47:13;17.00;1.00
36186;DHT22;22228;53.222;7.446;2023-08-31T12:49:34;16.70;99.90
36186;DHT22;22228;53.222;7.446;2023-08-31T12:51:54;16.30;99.90
36186;DHT22;22228;53.222;7.446;2023-08-31T12:54:15;15.60;1.00
36186;DHT22;22228;53.222;7.446;2023-08-31T12:56:37;15.20;1.00
36186;DHT22;22228;53.222;7.446;2023-08-31T12:58:57;15.00;1.00
36186;DHT22;22228;53.222;7.446;2023-08-31T13:01:18;14.90;99.90
36186;DHT22;22228;53.222;7.446;2023-08-31T13:03:39;14.90;99.90
36186;DHT22;22228;53.222;7.446;2023-08-31T13:05:59;14.90;99.90
36186;DHT22;22228;53.222;7.446;2023-08-31T13:08:21;14.90;99.90
36186;DHT22;22228;53.222;7.446;2023-08-31T13:10:41;14.80;1.00
36186;DHT22;22228;53.222;7.446;2023-08-31T13:13:03;14.80;1.00
36186;DHT22;22228;53.222;7.446;2023-08-31T13:15:24;14.80;1.00
36186;DHT22;22228;53.222;7.446;2023-08-31T13:17:44;14.90;99.90
36186;DHT22;22228;53.222;7.446;2023-08-31T13:20:06;15.20;1.00
36186;DHT22;22228;53.222;7.446;2023-08-31T13:22:28;16.10;1.00
36186;DHT22;22228;53.222;7.446;2023-08-31T13:24:49;17.60;1.00
36186;DHT22;22228;53.222;7.446;2023-08-31T13:27:09;18.10;99.90
36186;DHT22;22228;53.222;7.446;2023-08-31T13:29:31;17.80;99.90
36186;DHT22;22228;53.222;7.446;2023-08-31T13:31:51;18.40;1.00
36186;DHT22;22228;53.222;7.446;2023-08-31T13:34:12;19.20;1.00
36186;DHT22;22228;53.222;7.446;2023-08-31T13:36:34;19.90;91.30
36186;DHT22;22228;53.222;7.446;2023-08-31T13:38:55;20.30;99.90
36186;DHT22;22228;53.222;7.446;2023-08-31T13:41:16;21.00;99.90
36186;DHT22;22228;53.222;7.446;2023-08-31T13:43:36;21.50;1.00
36186;DHT22;22228;53.222;7.446;2023-08-31T13:45:58;21.50;1.00
36186;DHT22;22228;53.222;7.446;2023-08-31T13:48:19;21.30;1.00
36186;DHT22;22228;53.222;7.446;2023-08-31T13:50:41;20.70;1.00
36186;DHT22;22228;53.222;7.446;2023-08-31T13:53:02;19.60;99.90
36186;DHT22;22228;53.222;7.446;2023-08-31T13:55:22;18.80;99.90
36186;DHT22;22228;53.222;7.446;2023-08-31T13:57:43;18.30;99.90
36186;DHT22;22228;53.222;7.446;2023-08-31T14:00:04;18.00;1.00
36186;DHT22;22228;53.222;7.446;2023-08-31T14:02:30;17.60;1.00
36186;DHT22;22228;53.222;7.446;2023-08-31T14:04:50;17.10;1.00
36186;DHT22;22228;53.222;7.446;2023-08-31T14:07:11;16.80;99.90
36186;DHT22;22228;53.222;7.446;2023-08-31T14:09:31;16.60;99.90
36186;DHT22;22228;53.222;7.446;2023-08-31T14:11:52;16.50;6.40
36186;DHT22;22228;53.222;7.446;2023-08-31T14:14:13;16.40;1.00
36186;DHT22;22228;53.222;7.446;2023-08-31T14:16:35;16.40;1.00
36186;DHT22;22228;53.222;7.446;2023-08-31T14:18:58;16.30;99.90
36186;DHT22;22228;53.222;7.446;2023-08-31T14:21:18;16.70;99.90
36186;DHT22;22228;53.222;7.446;2023-08-31T14:23:39;16.90;1.00
36186;DHT22;22228;53.222;7.446;2023-08-31T14:26:03;16.90;99.90
36186;DHT22;22228;53.222;7.446;2023-08-31T14:28:24;16.80;99.90
36186;DHT22;22228;53.222;7.446;2023-08-31T14:30:44;16.60;99.90
36186;DHT22;22228;53.222;7.446;2023-08-31T14:33:05;16.60;1.00
36186;DHT22;22228;53.222;7.446;2023-08-31T14:35:27;17.60;99.90
36186;DHT22;22228;53.222;7.446;2023-08-31T14:37:48;18.40;1.00
36186;DHT22;22228;53.222;7.446;2023-08-31T14:40:09;18.20;1.00
36186;DHT22;22228;53.222;7.446;2023-08-31T14:42:29;18.00;1.00
36186;DHT22;22228;53.222;7.446;2023-08-31T14:44:49;17.60;99.90
36186;DHT22;22228;53.222;7.446;2023-08-31T14:47:10;17.30;1.00
36186;DHT22;22228;53.222;7.446;2023-08-31T14:49:30;17.00;99.90
36186;DHT22;22228;53.222;7.446;2023-08-31T14:51:52;16.80;1.00
36186;DHT22;22228;53.222;7.446;2023-08-31T14:54:12;16.60;99.90
36186;DHT22;22228;53.222;7.446;2023-08-31T14:56:33;16.50;75.60
36186;DHT22;22228;53.222;7.446;2023-08-31T14:58:53;16.30;1.00
36186;DHT22;22228;53.222;7.446;2023-08-31T15:01:14;16.10;1.00
36186;DHT22;22228;53.222;7.446;2023-08-31T15:03:35;16.00;1.00
36186;DHT22;22228;53.222;7.446;2023-08-31T15:05:55;15.90;99.90
36186;DHT22;22228;53.222;7.446;2023-08-31T15:08:17;15.80;1.00
36186;DHT22;22228;53.222;7.446;2023-08-31T15:10:38;15.70;1.00
36186;DHT22;22228;53.222;7.446;2023-08-31T15:12:59;15.80;1.00
36186;DHT22;22228;53.222;7.446;2023-08-31T15:15:20;15.90;1.00
36186;DHT22;22228;53.222;7.446;2023-08-31T15:17:40;16.00;1.00
36186;DHT22;22228;53.222;7.446;2023-08-31T15:20:01;16.10;1.00
36186;DHT22;22228;53.222;7.446;2023-08-31T15:22:22;16.20;99.90
36186;DHT22;22228;53.222;7.446;2023-08-31T15:24:45;17.10;81.40
36186;DHT22;22228;53.222;7.446;2023-08-31T15:27:06;18.30;1.00
36186;DHT22;22228;53.222;7.446;2023-08-31T15:29:26;18.60;99.90
36186;DHT22;22228;53.222;7.446;2023-08-31T15:31:47;18.30;1.00
36186;DHT22;22228;53.222;7.446;2023-08-31T15:34:09;17.80;1.00
36186;DHT22;22228;53.222;7.446;2023-08-31T15:36:30;17.50;99.90
36186;DHT22;22228;53.222;7.446;2023-08-31T15:38:51;17.30;1.00
36186;DHT22;22228;53.222;7.446;2023-08-31T15:41:13;17.20;1.00
36186;DHT22;22228;53.222;7.446;2023-08-31T15:43:35;17.10;1.00
36186;DHT22;22228;53.222;7.446;2023-08-31T15:45:57;17.10;99.90
36186;DHT22;22228;53.222;7.446;2023-08-31T15:48:18;17.20;1.00
36186;DHT22;22228;53.222;7.446;2023-08-31T15:50:38;17.40;99.90
36186;DHT22;22228;53.222;7.446;2023-08-31T15:52:59;17.50;57.40
36186;DHT22;22228;53.222;7.446;2023-08-31T15:55:20;17.50;1.00
36186;DHT22;22228;53.222;7.446;2023-08-31T15:57:42;17.50;1.00
36186;DHT22;22228;53.222;7.446;2023-08-31T16:00:02;17.50;99.90
36186;DHT22;22228;53.222;7.446;2023-08-31T16:02:25;17.50;1.00
36186;DHT22;22228;53.222;7.446;2023-08-31T16:04:45;17.40;1.00
36186;DHT22;22228;53.222;7.446;2023-08-31T16:07:07;17.40;1.00
36186;DHT22;22228;53.222;7.446;2023-08-31T16:09:27;17.30;1.00
36186;DHT22;22228;53.222;7.446;2023-08-31T16:11:48;17.20;99.90
36186;DHT22;22228;53.222;7.446;2023-08-31T16:14:10;17.10;99.90
36186;DHT22;22228;53.222;7.446;2023-08-31T16:16:30;17.00;1.00
36186;DHT22;22228;53.222;7.446;2023-08-31T16:18:51;17.00;1.00
36186;DHT22;22228;53.222;7.446;2023-08-31T16:21:11;17.00;1.00
36186;DHT22;22228;53.222;7.446;2023-08-31T16:23:32;16.90;99.90
36186;DHT22;22228;53.222;7.446;2023-08-31T16:25:52;16.90;99.90
36186;DHT22;22228;53.222;7.446;2023-08-31T16:28:13;16.80;1.00
36186;DHT22;22228;53.222;7.446;2023-08-31T16:30:34;16.70;99.90
36186;DHT22;22228;53.222;7.446;2023-08-31T16:32:55;16.60;1.00
36186;DHT22;22228;53.222;7.446;2023-08-31T16:35:16;16.50;99.90
36186;DHT22;22228;53.222;7.446;2023-08-31T16:37:36;16.50;1.00
36186;DHT22;22228;53.222;7.446;2023-08-31T16:39:57;16.40;99.90
36186;DHT22;22228;53.222;7.446;2023-08-31T16:42:17;16.40;1.00
36186;DHT22;22228;53.222;7.446;2023-08-31T16:44:38;16.40;1.00
36186;DHT22;22228;53.222;7.446;2023-08-31T16:47:00;16.50;1.00
36186;DHT22;22228;53.222;7.446;2023-08-31T16:49:20;16.60;1.00
36186;DHT22;22228;53.222;7.446;2023-08-31T16:51:40;16.60;1.00
36186;DHT22;22228;53.222;7.446;2023-08-31T16:54:01;16.60;99.90
36186;DHT22;22228;53.222;7.446;2023-08-31T16:56:22;16.60;1.00
36186;DHT22;22228;53.222;7.446;2023-08-31T16:58:42;16.60;1.00
36186;DHT22;22228;53.222;7.446;2023-08-31T17:01:03;16.50;99.90
36186;DHT22;22228;53.222;7.446;2023-08-31T17:03:25;16.50;1.00
36186;DHT22;22228;53.222;7.446;2023-08-31T17:05:48;16.40;1.00
36186;DHT22;22228;53.222;7.446;2023-08-31T17:08:10;16.40;99.90
36186;DHT22;22228;53.222;7.446;2023-08-31T17:10:31;16.30;1.00
36186;DHT22;22228;53.222;7.446;2023-08-31T17:12:51;16.30;99.90
36186;DHT22;22228;53.222;7.446;2023-08-31T17:15:12;16.30;99.90
36186;DHT22;22228;53.222;7.446;2023-08-31T17:17:32;16.40;1.00
36186;DHT22;22228;53.222;7.446;2023-08-31T17:19:54;16.40;1.00
36186;DHT22;22228;53.222;7.446;2023-08-31T17:22:14;16.40;1.00
36186;DHT22;22228;53.222;7.446;2023-08-31T17:24:35;16.30;99.90
36186;DHT22;22228;53.222;7.446;2023-08-31T17:26:55;16.30;99.90
36186;DHT22;22228;53.222;7.446;2023-08-31T17:29:16;16.20;99.90
36186;DHT22;22228;53.222;7.446;2023-08-31T17:31:36;16.10;1.00
36186;DHT22;22228;53.222;7.446;2023-08-31T17:33:57;16.10;1.00
36186;DHT22;22228;53.222;7.446;2023-08-31T17:36:19;16.10;99.90
36186;DHT22;22228;53.222;7.446;2023-08-31T17:38:41;16.00;1.00
36186;DHT22;22228;53.222;7.446;2023-08-31T17:41:02;16.00;94.90
36186;DHT22;22228;53.222;7.446;2023-08-31T17:43:23;16.00;1.00
36186;DHT22;22228;53.222;7.446;2023-08-31T17:45:44;16.00;1.00